Upstream stations:
Downstream station:
SHEF ID: FLRK1 COTTONWOOD R NR FLORENCE, KS
STATION TYPE:
Regulating: Stage = 21.00, Flow = 9471
PRECIP STAGE STAGE(2) RIV-FLOW BAT-LOAD
in ft ft cfs volt
Ccp-Rev Ccp-Rev Ccp-Rev Ccp-Rev Ccp-Rev
(US/Central)
11/23 00:00 0.00 3.08 2.91 77 12.77
11/23 01:00 0.00 3.08 2.91 77 12.71
11/23 02:00 0.00 3.08 2.91 77 12.71
11/23 03:00 0.00 3.08 2.91 77 12.65
11/23 04:00 0.00 3.08 2.91 77 12.65
11/23 05:00 0.00 3.09 2.91 80 12.60
11/23 06:00 0.00 3.09 2.91 80 12.54
11/23 07:00 0.00 3.08 2.91 77 12.54
11/23 08:00 0.00 3.09 2.91 80 12.54
11/23 09:00 0.00 3.08 2.91 77 12.95
11/23 10:00 0.00 3.07 2.91 75 13.53
11/23 11:00 0.00 3.04 2.92 67 13.65
11/23 12:00 0.00 3.04 2.91 67 13.83
11/23 13:00 0.00 3.03 2.92 64 14.00
11/23 14:00 0.00 3.04 2.91 67 13.59
11/23 15:00 0.00 3.03 2.91 64 13.65
11/23 16:00 0.00 3.05 2.91 69 14.06
11/23 17:00 0.00 3.05 2.91 69 13.48
11/23 18:00 0.00 3.05 2.91 69 13.07
11/23 19:00 0.00 3.07 2.91 75 13.00
11/23 20:00 0.00 3.06 2.91 72 13.00
11/23 21:00 0.00 3.04 2.91 67 12.95
11/23 22:00 0.00 3.03 2.91 64 12.95
11/23 23:00 0.00 3.04 2.91 67 12.89